Time;durP1;ratioP1;P1;durP2;ratioP2;P2;SDS_P1;SDS_P2;PMS_P1;PMS_P2;Temp;Humidity;BMP_temperature;BMP_pressure;BME280_temperature;BME280_humidity;BME280_pressure;Samples;Min_cycle;Max_cycle;Signal;HPM_P1;HPM_P2
2022/03/29 00:01:52;;;;;;;;;46.67;38.33;;;25.89;97647.90;;;;117698;1188;25340;-45
2022/03/29 00:04:23;;;;;;;;;43.50;36.00;;;25.89;97641.70;;;;117808;1188;25458;-45
2022/03/29 00:06:55;;;;;;;;;42.33;37.00;;;25.89;97637.88;;;;117687;1188;25519;-46
2022/03/29 00:09:26;;;;;;;;;46.33;39.33;;;25.88;97627.64;;;;117796;1186;24934;-45
2022/03/29 00:11:57;;;;;;;;;45.33;36.33;;;25.89;97626.11;;;;117668;1186;25418;-46
2022/03/29 00:14:26;;;;;;;;;50.33;39.33;;;25.89;97624.31;;;;117662;1188;25269;-44
2022/03/29 00:16:59;;;;;;;;;41.33;34.33;;;25.87;97616.38;;;;117625;1188;24902;-45
2022/03/29 00:19:30;;;;;;;;;50.50;40.50;;;25.86;97614.17;;;;117646;1188;25729;-47
2022/03/29 00:22:01;;;;;;;;;37.67;33.00;;;25.87;97614.84;;;;117631;1188;25546;-46
2022/03/29 00:24:33;;;;;;;;;42.33;34.00;;;25.87;97615.02;;;;117818;1187;25465;-44
2022/03/29 00:27:05;;;;;;;;;43.33;35.00;;;25.93;97612.99;;;;117591;1186;25674;-44
2022/03/29 00:29:39;;;;;;;;;30.67;28.67;;;25.95;97607.33;;;;117747;1188;25337;-46
2022/03/29 00:32:11;;;;;;;;;40.00;35.50;;;25.97;97603.51;;;;117626;1188;25418;-45
2022/03/29 00:34:42;;;;;;;;;45.00;34.67;;;25.97;97596.86;;;;117807;1188;25107;-45
2022/03/29 00:37:13;;;;;;;;;43.00;34.00;;;26.01;97597.02;;;;117657;1187;25265;-45
2022/03/29 00:39:46;;;;;;;;;39.00;32.33;;;26.00;97595.24;;;;117709;1188;25300;-45
2022/03/29 00:42:17;;;;;;;;;37.00;30.00;;;25.99;97591.39;;;;117727;1187;25678;-44
2022/03/29 00:44:48;;;;;;;;;35.67;32.00;;;26.00;97584.48;;;;117696;1187;25305;-44
2022/03/29 00:47:17;;;;;;;;;41.33;32.33;;;26.01;97581.36;;;;117647;1188;26139;-47
2022/03/29 00:49:49;;;;;;;;;37.33;32.67;;;26.00;97578.02;;;;117602;1189;24728;-45
2022/03/29 00:52:21;;;;;;;;;38.00;32.33;;;25.97;97573.86;;;;117662;1188;25456;-45
2022/03/29 00:54:54;;;;;;;;;46.00;34.00;;;25.99;97570.83;;;;117381;1188;25720;-44
2022/03/29 00:57:25;;;;;;;;;38.00;33.00;;;26.00;97570.25;;;;117410;1190;25176;-48
2022/03/29 00:59:56;;;;;;;;;42.00;34.00;;;26.01;97570.33;;;;117620;1187;25062;-45
2022/03/29 01:02:26;;;;;;;;;39.33;34.67;;;26.01;97565.27;;;;117692;1187;25351;-45
2022/03/29 01:04:57;;;;;;;;;37.33;33.00;;;26.04;97564.19;;;;117590;1188;25193;-45
2022/03/29 01:07:30;;;;;;;;;35.33;31.67;;;26.04;97559.46;;;;117505;1188;25705;-45
2022/03/29 01:10:02;;;;;;;;;38.33;32.67;;;26.03;97559.42;;;;117475;1188;24849;-46
2022/03/29 01:12:37;;;;;;;;;36.00;31.00;;;26.02;97556.52;;;;117444;1190;25254;-47
2022/03/29 01:15:10;;;;;;;;;41.00;35.00;;;26.04;97556.06;;;;117488;1190;25414;-44
2022/03/29 01:17:43;;;;;;;;;38.33;33.00;;;26.04;97554.06;;;;117416;1189;25915;-47
2022/03/29 01:20:19;;;;;;;;;36.00;32.00;;;26.04;97553.20;;;;117410;1189;25421;-45
2022/03/29 01:22:52;;;;;;;;;45.67;33.33;;;26.02;97549.70;;;;117421;1190;25677;-46
2022/03/29 01:25:26;;;;;;;;;35.00;31.33;;;26.02;97546.48;;;;117359;1190;25802;-45
2022/03/29 01:27:57;;;;;;;;;38.00;32.50;;;26.02;97544.04;;;;117622;1188;24752;-44
2022/03/29 01:30:28;;;;;;;;;43.33;31.33;;;26.04;97544.23;;;;117532;1188;24793;-45
2022/03/29 01:32:59;;;;;;;;;36.33;30.00;;;26.01;97539.63;;;;117469;1189;25116;-45
2022/03/29 01:35:31;;;;;;;;;39.67;32.00;;;25.99;97534.70;;;;117539;1188;25085;-46
2022/03/29 01:38:04;;;;;;;;;36.50;31.00;;;25.99;97528.70;;;;117437;1189;24879;-45
2022/03/29 01:40:37;;;;;;;;;39.67;30.33;;;25.98;97524.69;;;;117711;1187;25172;-47
2022/03/29 01:43:06;;;;;;;;;29.67;29.67;;;26.00;97518.52;;;;117455;1189;25234;-46
2022/03/29 01:45:38;;;;;;;;;38.67;32.00;;;25.96;97517.54;;;;117578;1188;25662;-46
2022/03/29 01:48:09;;;;;;;;;37.00;30.67;;;25.93;97515.02;;;;117519;1189;25124;-45
2022/03/29 01:50:41;;;;;;;;;31.00;30.33;;;25.93;97511.59;;;;117624;1188;24984;-43
2022/03/29 01:53:24;;;;;;;;;35.00;30.67;;;25.93;97512.98;;;;117595;1189;25566;-44
2022/03/29 01:55:58;;;;;;;;;32.00;30.00;;;25.99;97506.25;;;;117620;1186;25180;-46
2022/03/29 01:58:30;;;;;;;;;33.67;30.67;;;26.01;97500.85;;;;117563;1188;25218;-45
2022/03/29 02:01:02;;;;;;;;;29.67;24.67;;;25.99;97495.63;;;;117559;1188;25214;-46
2022/03/29 02:03:32;;;;;;;;;35.33;32.00;;;25.99;97492.34;;;;117564;1188;24875;-44
2022/03/29 02:06:04;;;;;;;;;37.00;33.00;;;26.00;97491.05;;;;117552;1188;25553;-45
2022/03/29 02:08:33;;;;;;;;;37.67;32.33;;;25.99;97491.21;;;;117328;1189;25416;-45
2022/03/29 02:11:07;;;;;;;;;34.00;30.00;;;25.96;97490.19;;;;117448;1189;25453;-45
2022/03/29 02:13:38;;;;;;;;;36.00;32.67;;;25.95;97490.39;;;;117551;1189;25379;-45
2022/03/29 02:16:07;;;;;;;;;36.50;29.00;;;25.96;97491.81;;;;117426;1188;25350;-47
2022/03/29 02:18:39;;;;;;;;;36.00;31.00;;;25.94;97494.66;;;;117471;1188;25456;-46
2022/03/29 02:21:10;;;;;;;;;35.67;30.00;;;25.92;97494.52;;;;117378;1189;25147;-43
2022/03/29 02:23:41;;;;;;;;;36.00;31.33;;;25.89;97494.06;;;;117580;1188;25630;-45
2022/03/29 02:26:15;;;;;;;;;38.67;31.67;;;25.94;97490.89;;;;117443;1188;25038;-44
2022/03/29 02:28:46;;;;;;;;;34.33;30.00;;;25.97;97488.30;;;;117583;1188;25381;-44
2022/03/29 02:31:19;;;;;;;;;34.67;28.00;;;25.99;97486.00;;;;117361;1189;25275;-46
2022/03/29 02:33:51;;;;;;;;;32.00;26.67;;;25.97;97486.01;;;;117596;1189;25182;-47
2022/03/29 02:36:22;;;;;;;;;30.00;28.00;;;26.00;97483.66;;;;117418;1188;25436;-48
2022/03/29 02:38:55;;;;;;;;;33.00;29.00;;;25.98;97476.58;;;;117479;1188;25315;-45
2022/03/29 02:41:26;;;;;;;;;36.00;31.33;;;25.96;97476.70;;;;117609;1188;25261;-45
2022/03/29 02:43:55;;;;;;;;;33.33;27.67;;;25.95;97473.77;;;;117531;1187;25317;-47
2022/03/29 02:46:26;;;;;;;;;32.33;29.67;;;25.94;97477.55;;;;117522;1188;25218;-44
2022/03/29 02:48:58;;;;;;;;;32.33;30.33;;;25.91;97475.14;;;;117556;1187;25021;-47
2022/03/29 02:51:29;;;;;;;;;36.67;32.33;;;25.92;97473.54;;;;117462;1187;25693;-46
2022/03/29 02:54:00;;;;;;;;;39.00;32.00;;;25.88;97474.30;;;;117441;1188;25107;-44
2022/03/29 02:56:32;;;;;;;;;37.00;30.00;;;25.88;97471.71;;;;117582;1187;25824;-46
2022/03/29 02:59:03;;;;;;;;;31.00;28.00;;;25.92;97472.30;;;;117670;1187;24746;-47
2022/03/29 03:01:36;;;;;;;;;36.67;30.67;;;25.92;97472.98;;;;117544;1188;24892;-45
2022/03/29 03:04:09;;;;;;;;;37.00;28.33;;;25.91;97473.70;;;;117480;1189;24918;-45
2022/03/29 03:06:41;;;;;;;;;27.67;23.67;;;25.90;97467.92;;;;117372;1189;25231;-46
2022/03/29 03:09:10;;;;;;;;;32.00;28.67;;;25.90;97465.89;;;;117635;1188;25691;-46
2022/03/29 03:11:40;;;;;;;;;33.00;30.00;;;25.89;97464.49;;;;117528;1189;24700;-45
2022/03/29 03:14:11;;;;;;;;;30.67;28.33;;;25.85;97462.20;;;;117578;1188;24877;-45
2022/03/29 03:16:48;;;;;;;;;34.33;32.00;;;25.84;97461.05;;;;117541;1187;25697;-45
2022/03/29 03:19:40;;;;;;;;;28.00;25.67;;;25.94;97460.61;;;;117612;1188;25674;-45
2022/03/29 03:22:11;;;;;;;;;30.67;27.00;;;25.96;97458.77;;;;117492;1187;24896;-47
2022/03/29 03:24:44;;;;;;;;;35.00;30.33;;;25.86;97457.09;;;;117522;1188;25269;-44
2022/03/29 03:27:16;;;;;;;;;36.00;29.33;;;25.82;97457.40;;;;117420;1188;25410;-45
2022/03/29 03:29:47;;;;;;;;;29.33;27.67;;;25.84;97455.30;;;;117558;1186;25197;-46
2022/03/29 03:32:19;;;;;;;;;31.50;27.50;;;25.82;97456.45;;;;117443;1190;25343;-47
2022/03/29 03:34:50;;;;;;;;;33.67;28.00;;;25.83;97461.07;;;;117622;1187;25040;-47
2022/03/29 03:37:23;;;;;;;;;31.00;25.67;;;25.80;97458.43;;;;117696;1188;25334;-45
2022/03/29 03:39:55;;;;;;;;;38.00;31.33;;;25.79;97459.24;;;;117374;1190;25394;-47
2022/03/29 03:42:25;;;;;;;;;28.33;26.67;;;25.80;97458.20;;;;117658;1187;25545;-47
2022/03/29 03:44:57;;;;;;;;;30.50;27.00;;;25.76;97458.73;;;;117395;1190;25191;-47
2022/03/29 03:47:26;;;;;;;;;30.67;28.33;;;25.75;97458.42;;;;117510;1188;25697;-46
2022/03/29 03:49:59;;;;;;;;;33.67;26.00;;;25.79;97460.27;;;;117800;1187;26081;-47
2022/03/29 03:52:29;;;;;;;;;27.00;26.00;;;25.83;97459.17;;;;117620;1186;25373;-46
2022/03/29 03:54:58;;;;;;;;;27.50;24.50;;;25.85;97459.05;;;;117830;1187;24936;-49
2022/03/29 03:57:29;;;;;;;;;31.00;28.50;;;25.88;97455.43;;;;117775;1187;25139;-47
2022/03/29 04:00:01;;;;;;;;;34.00;29.67;;;25.85;97449.37;;;;117435;1190;24873;-45
2022/03/29 04:02:30;;;;;;;;;29.00;25.67;;;25.81;97448.52;;;;117740;1188;25229;-44
2022/03/29 04:04:58;;;;;;;;;32.67;28.00;;;25.85;97440.83;;;;117465;1190;25551;-49
2022/03/29 04:07:29;;;;;;;;;28.00;25.00;;;25.81;97439.81;;;;117412;1188;25699;-51
2022/03/29 04:09:58;;;;;;;;;32.00;29.67;;;25.79;97440.00;;;;117457;1190;25914;-47
2022/03/29 04:12:33;;;;;;;;;30.00;24.50;;;25.81;97435.60;;;;117494;1189;25719;-48
2022/03/29 04:15:09;;;;;;;;;28.00;26.67;;;25.81;97442.13;;;;117406;1189;24756;-49
2022/03/29 04:17:42;;;;;;;;;34.00;28.33;;;25.85;97441.81;;;;117640;1188;25822;-48
2022/03/29 04:20:13;;;;;;;;;27.67;26.33;;;25.83;97441.19;;;;118529;1186;26221;-49
2022/03/29 04:22:43;;;;;;;;;31.33;26.67;;;26.04;97438.16;;;;117621;1188;25603;-48
2022/03/29 04:25:15;;;;;;;;;32.00;25.00;;;25.97;97435.21;;;;117651;1187;24742;-46
2022/03/29 04:27:46;;;;;;;;;29.00;28.33;;;25.94;97431.78;;;;117579;1186;24960;-49
2022/03/29 04:30:16;;;;;;;;;31.67;26.33;;;25.87;97434.55;;;;117634;1188;24989;-49
2022/03/29 04:32:46;;;;;;;;;29.00;23.00;;;25.86;97436.16;;;;118027;1188;25381;-47
2022/03/29 04:35:14;;;;;;;;;31.00;28.00;;;25.92;97435.01;;;;117683;1188;25618;-47
2022/03/29 04:37:44;;;;;;;;;38.00;30.00;;;25.93;97435.89;;;;117532;1189;25830;-47
2022/03/29 04:40:12;;;;;;;;;30.67;29.00;;;25.87;97437.38;;;;117542;1187;25540;-47
2022/03/29 04:42:44;;;;;;;;;29.67;27.00;;;25.84;97439.09;;;;117392;1190;25682;-49
2022/03/29 04:45:14;;;;;;;;;28.67;22.67;;;25.85;97443.66;;;;117896;1186;24785;-47
2022/03/29 04:47:43;;;;;;;;;27.00;23.50;;;25.91;97444.13;;;;117560;1188;24782;-48
2022/03/29 04:50:13;;;;;;;;;35.00;28.00;;;25.92;97444.86;;;;117671;1189;26014;-47
2022/03/29 04:52:44;;;;;;;;;25.67;25.00;;;25.92;97444.92;;;;117411;1189;25510;-48
2022/03/29 04:55:14;;;;;;;;;30.33;27.00;;;25.93;97443.09;;;;117593;1190;25029;-48
2022/03/29 04:57:43;;;;;;;;;34.33;26.67;;;26.01;97441.16;;;;117301;1190;25034;-48
2022/03/29 05:00:16;;;;;;;;;31.00;28.50;;;25.92;97435.59;;;;117412;1191;24830;-47
2022/03/29 05:02:46;;;;;;;;;32.00;27.67;;;25.85;97432.08;;;;117754;1188;24944;-47
2022/03/29 05:05:14;;;;;;;;;29.00;26.00;;;25.94;97432.38;;;;117687;1187;25085;-46
2022/03/29 05:07:43;;;;;;;;;27.33;23.67;;;25.94;97430.72;;;;117685;1188;25314;-48
2022/03/29 05:10:13;;;;;;;;;29.00;25.67;;;25.93;97427.80;;;;117346;1189;25620;-46
2022/03/29 05:12:49;;;;;;;;;28.00;23.00;;;25.93;97429.55;;;;117744;1188;25629;-48
2022/03/29 05:15:18;;;;;;;;;20.50;20.50;;;25.99;97429.52;;;;117886;1187;25323;-46
2022/03/29 05:17:47;;;;;;;;;39.67;31.33;;;26.00;97428.52;;;;117640;1187;24911;-45
2022/03/29 05:20:15;;;;;;;;;29.33;25.00;;;25.90;97424.59;;;;118659;1188;25485;-45
2022/03/29 05:22:52;;;;;;;;;30.00;27.33;;;26.11;97422.70;;;;117841;1188;25342;-46
2022/03/29 05:25:24;;;;;;;;;44.00;34.00;;;26.26;97426.81;;;;117698;1186;24863;-45
2022/03/29 05:27:53;;;;;;;;;46.33;36.33;;;25.92;97430.49;;;;117912;1186;25619;-47
2022/03/29 05:30:21;;;;;;;;;58.00;45.50;;;25.29;97431.52;;;;117908;1188;25319;-44
2022/03/29 05:32:57;;;;;;;;;57.67;45.67;;;24.76;97430.23;;;;117784;1187;25101;-43
2022/03/29 05:35:29;;;;;;;;;71.33;51.00;;;24.19;97434.61;;;;117994;1188;25276;-44
2022/03/29 05:38:00;;;;;;;;;63.00;49.00;;;23.58;97431.94;;;;118408;1188;25277;-45
2022/03/29 05:40:31;;;;;;;;;66.00;49.00;;;23.36;97431.64;;;;117902;1189;25183;-45
2022/03/29 05:42:59;;;;;;;;;69.25;53.00;;;22.98;97427.83;;;;118654;1189;25263;-45
2022/03/29 05:45:29;;;;;;;;;78.00;56.00;;;22.72;97430.23;;;;117915;1186;24849;-44
2022/03/29 05:50:42;;;;;;;;;67.33;50.33;;;21.90;97429.07;;;;117991;1188;24870;-43
2022/03/29 05:53:11;;;;;;;;;71.75;54.00;;;21.55;97421.99;;;;117794;1186;24916;-44
2022/03/29 05:55:39;;;;;;;;;69.00;52.75;;;21.18;97422.81;;;;117969;1187;25607;-44
2022/03/29 05:58:08;;;;;;;;;68.00;51.67;;;20.91;97419.55;;;;117855;1188;25413;-48
2022/03/29 06:00:38;;;;;;;;;71.00;53.33;;;20.75;97412.95;;;;118176;1188;26363;-44
2022/03/29 06:03:06;;;;;;;;;70.25;52.75;;;20.55;97416.01;;;;118127;1188;25357;-46
2022/03/29 06:05:36;;;;;;;;;69.33;47.67;;;20.45;97411.65;;;;117980;1186;24859;-47
2022/03/29 06:08:04;;;;;;;;;71.25;52.00;;;20.66;97408.98;;;;117908;1187;25923;-47
2022/03/29 06:10:32;;;;;;;;;65.00;49.00;;;20.88;97407.02;;;;117780;1188;25682;-49
2022/03/29 06:12:59;;;;;;;;;60.75;46.00;;;21.05;97400.67;;;;117649;1189;25228;-48
2022/03/29 06:15:27;;;;;;;;;52.75;39.50;;;21.21;97398.02;;;;117864;1188;26526;-46
2022/03/29 06:17:55;;;;;;;;;63.00;49.00;;;21.40;97396.31;;;;117663;1189;25005;-45
2022/03/29 06:20:27;;;;;;;;;64.25;47.00;;;21.53;97394.79;;;;117737;1189;25807;-42
2022/03/29 06:22:59;;;;;;;;;66.75;48.25;;;21.65;97393.45;;;;117753;1188;25238;-43
2022/03/29 06:25:32;;;;;;;;;59.75;45.00;;;21.86;97398.48;;;;117935;1187;24938;-42
2022/03/29 06:28:02;;;;;;;;;61.00;45.00;;;22.03;97398.01;;;;118084;1189;24886;-42
2022/03/29 06:30:34;;;;;;;;;62.25;47.25;;;22.23;97398.13;;;;118013;1188;25606;-42
2022/03/29 06:33:02;;;;;;;;;64.00;46.25;;;22.42;97398.33;;;;117754;1188;25249;-41
2022/03/29 06:35:50;;;;;;;;;61.00;47.50;;;22.48;97399.04;;;;117694;1189;24808;-43
2022/03/29 06:38:21;;;;;;;;;56.50;42.25;;;22.55;97400.56;;;;117674;1188;25376;-42
2022/03/29 06:40:53;;;;;;;;;55.00;40.25;;;22.64;97400.33;;;;118001;1187;25090;-43
2022/03/29 06:43:28;;;;;;;;;58.50;45.75;;;22.88;97386.27;;;;117817;1188;25018;-43
2022/03/29 06:45:56;;;;;;;;;58.33;45.33;;;23.04;97388.64;;;;117872;1188;24706;-43
2022/03/29 06:48:25;;;;;;;;;59.33;47.00;;;23.22;97389.81;;;;117795;1188;25686;-45
2022/03/29 06:50:52;;;;;;;;;58.25;42.25;;;23.37;97390.80;;;;117933;1188;24686;-43
2022/03/29 06:53:20;;;;;;;;;52.75;40.50;;;23.53;97387.02;;;;117922;1188;25592;-44
2022/03/29 06:55:56;;;;;;;;;56.50;43.00;;;23.67;97384.05;;;;117940;1188;24925;-43
2022/03/29 06:58:28;;;;;;;;;56.00;43.00;;;23.72;97383.39;;;;117870;1188;25619;-44
2022/03/29 07:00:59;;;;;;;;;55.75;43.00;;;23.80;97384.04;;;;117960;1190;26172;-45
2022/03/29 07:03:29;;;;;;;;;56.25;44.75;;;23.87;97383.76;;;;117472;1188;25402;-44
2022/03/29 07:06:03;;;;;;;;;53.33;41.00;;;23.88;97380.33;;;;117819;1186;25032;-42
2022/03/29 07:08:32;;;;;;;;;51.25;42.25;;;23.86;97374.64;;;;118084;1188;25751;-45
2022/03/29 07:11:24;;;;;;;;;48.25;39.75;;;24.00;97375.51;;;;117687;1188;25433;-43
2022/03/29 07:13:54;;;;;;;;;50.25;39.25;;;24.01;97372.63;;;;118208;1188;25708;-45
2022/03/29 07:16:22;;;;;;;;;56.50;44.50;;;24.04;97369.93;;;;117773;1188;25311;-46
2022/03/29 07:18:54;;;;;;;;;54.33;43.67;;;24.11;97366.88;;;;117976;1188;25676;-42
2022/03/29 07:21:34;;;;;;;;;;;;;;;;;;;;;
2022/03/29 07:24:06;;;;;;;;;51.67;40.00;;;24.35;97365.45;;;;118068;1188;25150;-43
2022/03/29 07:26:39;;;;;;;;;55.00;42.00;;;24.40;97363.69;;;;118180;1188;25734;-44
2022/03/29 07:29:12;;;;;;;;;54.50;42.50;;;24.61;97362.02;;;;117649;1188;25192;-45
2022/03/29 07:31:43;;;;;;;;;53.50;41.75;;;24.55;97357.10;;;;118276;1186;25318;-45
2022/03/29 07:34:16;;;;;;;;;59.25;45.50;;;24.75;97357.44;;;;117654;1186;25149;-44
2022/03/29 07:37:00;;;;;;;;;;;;;;;;;;;;;
2022/03/29 07:39:30;;;;;;;;;57.67;45.67;;;24.74;97342.35;;;;117893;1187;25690;-45
2022/03/29 07:41:59;;;;;;;;;56.00;44.00;;;24.84;97343.38;;;;117683;1190;24860;-44
2022/03/29 07:44:32;;;;;;;;;59.50;46.75;;;24.90;97332.55;;;;117760;1188;25377;-40
2022/03/29 07:47:00;;;;;;;;;55.33;42.67;;;24.95;97331.08;;;;117620;1189;25080;-44
2022/03/29 07:49:29;;;;;;;;;58.67;46.00;;;24.95;97331.35;;;;117676;1188;24717;-44
2022/03/29 07:52:19;;;;;;;;;55.75;43.75;;;24.85;97326.42;;;;118005;1188;25704;-43
2022/03/29 07:54:51;;;;;;;;;46.75;39.75;;;25.05;97320.55;;;;117779;1188;24992;-43
2022/03/29 07:57:29;;;;;;;;;53.75;42.50;;;25.02;97314.17;;;;117633;1186;25368;-43
2022/03/29 08:00:31;;;;;;;;;44.75;36.50;;;25.12;97307.90;;;;117893;1188;25297;-45
2022/03/29 08:03:09;;;;;;;;;59.33;45.00;;;25.35;97307.52;;;;117570;1190;24767;-42
2022/03/29 08:05:43;;;;;;;;;52.67;44.33;;;25.43;97309.97;;;;117961;1188;25309;-42
2022/03/29 08:08:13;;;;;;;;;54.67;44.00;;;25.53;97304.73;;;;117703;1188;25068;-40
2022/03/29 08:10:48;;;;;;;;;59.33;44.00;;;25.53;97300.28;;;;118175;1189;25892;-41
2022/03/29 08:13:16;;;;;;;;;52.33;43.33;;;25.63;97297.11;;;;117612;1190;26055;-40
2022/03/29 08:15:46;;;;;;;;;57.50;44.50;;;25.64;97293.83;;;;118079;1186;25592;-41
2022/03/29 08:18:15;;;;;;;;;57.50;44.50;;;25.70;97289.52;;;;117687;1188;25725;-40
2022/03/29 08:20:47;;;;;;;;;59.50;45.50;;;25.72;97286.95;;;;118018;1188;26139;-43
2022/03/29 08:23:15;;;;;;;;;52.33;42.00;;;25.78;97283.29;;;;118408;1188;25229;-42
2022/03/29 08:25:48;;;;;;;;;53.75;44.25;;;25.86;97272.95;;;;118496;1187;25441;-44
2022/03/29 08:28:19;;;;;;;;;60.50;46.75;;;26.03;97271.91;;;;118488;1188;25324;-40
2022/03/29 08:30:50;;;;;;;;;53.50;40.50;;;26.11;97265.59;;;;118456;1187;25796;-41
2022/03/29 08:33:20;;;;;;;;;56.33;43.67;;;26.22;97265.45;;;;118325;1187;25265;-42
2022/03/29 08:35:52;;;;;;;;;52.33;43.33;;;26.20;97260.32;;;;118285;1188;26068;-42
2022/03/29 08:38:20;;;;;;;;;59.33;44.67;;;26.23;97256.25;;;;118473;1187;25659;-42
2022/03/29 08:41:01;;;;;;;;;54.00;44.00;;;26.33;97250.48;;;;118101;1188;24811;-43
2022/03/29 08:43:31;;;;;;;;;60.67;46.00;;;26.36;97244.73;;;;118142;1187;24754;-43
2022/03/29 08:46:00;;;;;;;;;54.33;41.67;;;26.34;97242.08;;;;118149;1187;25044;-42
2022/03/29 08:48:30;;;;;;;;;55.00;44.00;;;26.40;97234.50;;;;118411;1187;26517;-45
2022/03/29 08:51:00;;;;;;;;;57.00;44.67;;;26.50;97227.45;;;;118485;1189;25165;-40
2022/03/29 08:53:49;;;;;;;;;59.75;46.75;;;26.63;97229.59;;;;118202;1186;25271;-44
2022/03/29 08:56:20;;;;;;;;;64.25;50.00;;;26.66;97224.75;;;;118435;1186;25517;-45
2022/03/29 08:58:48;;;;;;;;;65.50;50.75;;;26.70;97216.29;;;;118649;1187;25557;-43
2022/03/29 09:01:19;;;;;;;;;59.25;45.00;;;26.78;97214.52;;;;118096;1189;25420;-44
2022/03/29 09:04:13;;;;;;;;;63.50;51.00;;;26.77;97208.05;;;;118499;1188;25269;-43
2022/03/29 09:06:54;;;;;;;;;63.00;46.75;;;26.91;97196.93;;;;118856;1189;25830;-44
2022/03/29 09:09:38;;;;;;;;;56.67;44.67;;;27.05;97194.60;;;;118134;1189;24950;-45
2022/03/29 09:12:17;;;;;;;;;56.25;45.50;;;26.98;97193.38;;;;118207;1188;25147;-43
2022/03/29 09:15:01;;;;;;;;;59.00;46.33;;;26.95;97184.62;;;;118301;1188;25321;-45
2022/03/29 09:17:39;;;;;;;;;57.33;44.00;;;26.98;97179.61;;;;118487;1189;25193;-45
2022/03/29 09:20:16;;;;;;;;;56.25;45.75;;;27.03;97176.24;;;;118342;1189;24817;-41
2022/03/29 09:22:46;;;;;;;;;52.33;42.00;;;26.95;97167.92;;;;118324;1190;25524;-43
2022/03/29 09:25:23;;;;;;;;;53.00;44.00;;;26.94;97160.67;;;;118512;1189;25185;-43
2022/03/29 09:27:54;;;;;;;;;58.00;46.33;;;26.98;97154.40;;;;118419;1188;25692;-43
2022/03/29 09:30:27;;;;;;;;;53.00;42.00;;;26.98;97153.20;;;;118480;1186;25628;-41
2022/03/29 09:33:00;;;;;;;;;54.00;42.00;;;27.05;97148.86;;;;118151;1189;25236;-41
2022/03/29 09:35:31;;;;;;;;;52.33;43.00;;;27.03;97142.67;;;;118384;1188;25307;-43
2022/03/29 09:38:03;;;;;;;;;53.00;42.00;;;27.07;97137.98;;;;117984;1186;25531;-42
2022/03/29 09:40:39;;;;;;;;;46.67;38.00;;;26.98;97134.87;;;;118283;1188;24926;-41
2022/03/29 09:43:10;;;;;;;;;52.00;41.50;;;27.03;97129.64;;;;118393;1186;24825;-43
2022/03/29 09:45:50;;;;;;;;;48.67;41.33;;;27.03;97128.59;;;;118319;1189;25358;-46
2022/03/29 09:48:20;;;;;;;;;49.67;40.00;;;27.13;97110.88;;;;118455;1187;24907;-43
2022/03/29 09:50:53;;;;;;;;;50.67;40.33;;;27.20;97103.68;;;;118426;1188;24994;-42
2022/03/29 09:54:04;;;;;;;;;51.67;41.67;;;27.23;97094.26;;;;118162;1188;25157;-46
2022/03/29 09:56:32;;;;;;;;;47.33;39.00;;;27.22;97096.16;;;;118531;1188;25054;-46
2022/03/29 09:59:16;;;;;;;;;50.00;39.67;;;27.22;97086.95;;;;118306;1186;25648;-43
2022/03/29 10:01:55;;;;;;;;;49.50;39.00;;;27.23;97086.87;;;;118592;1189;25601;-47
2022/03/29 10:04:25;;;;;;;;;41.33;36.33;;;27.32;97087.65;;;;118155;1189;25212;-44
2022/03/29 10:07:10;;;;;;;;;41.67;34.33;;;27.25;97080.62;;;;118210;1188;26343;-48
2022/03/29 10:09:42;;;;;;;;;44.33;34.67;;;27.22;97078.16;;;;118402;1189;25560;-46
2022/03/29 10:12:13;;;;;;;;;44.00;37.00;;;27.19;97075.39;;;;118643;1187;25618;-46
2022/03/29 10:14:43;;;;;;;;;42.33;34.67;;;27.32;97067.83;;;;118199;1187;26270;-46
2022/03/29 10:17:18;;;;;;;;;41.67;33.00;;;27.26;97066.46;;;;118567;1188;25155;-46
2022/03/29 10:19:50;;;;;;;;;41.33;34.33;;;27.34;97067.85;;;;118015;1189;25314;-44
2022/03/29 10:22:18;;;;;;;;;46.00;36.67;;;27.29;97062.61;;;;118531;1188;25344;-45
2022/03/29 10:24:49;;;;;;;;;43.67;38.00;;;27.39;97060.84;;;;118028;1188;25580;-44
2022/03/29 10:27:23;;;;;;;;;52.33;40.00;;;27.37;97057.02;;;;118304;1189;25150;-43
2022/03/29 10:29:53;;;;;;;;;50.33;40.33;;;27.42;97050.52;;;;118127;1188;25075;-47
2022/03/29 10:32:29;;;;;;;;;56.00;41.33;;;27.47;97047.95;;;;118523;1188;25629;-43
2022/03/29 10:35:11;;;;;;;;;50.67;41.00;;;27.56;97046.55;;;;118051;1188;25020;-49
2022/03/29 10:37:55;;;;;;;;;55.33;45.00;;;27.59;97044.41;;;;118254;1187;25707;-45
2022/03/29 10:40:34;;;;;;;;;50.00;38.67;;;27.66;97045.48;;;;118597;1188;25295;-44
2022/03/29 10:43:38;;;;;;;;;43.00;37.33;;;27.76;97037.95;;;;118393;1187;26049;-44
2022/03/29 10:46:28;;;;;;;;;40.67;36.67;;;27.88;97038.91;;;;118176;1192;25123;-48
2022/03/29 10:49:28;;;;;;;;;46.33;36.33;;;27.94;97032.17;;;;118058;1189;25513;-44
2022/03/29 10:52:25;;;;;;;;;43.50;36.00;;;27.90;97025.95;;;;118578;1187;25233;-46
2022/03/29 10:55:27;;;;;;;;;47.67;39.67;;;28.07;97015.55;;;;118385;1186;25811;-41
2022/03/29 10:58:17;;;;;;;;;68.67;53.00;;;28.20;97013.11;;;;118281;1188;25654;-42
2022/03/29 11:00:46;;;;;;;;;54.67;44.33;;;28.24;97001.32;;;;118649;1188;24969;-42
2022/03/29 11:03:15;;;;;;;;;64.33;49.33;;;28.22;97003.23;;;;118200;1189;25008;-42
2022/03/29 11:06:07;;;;;;;;;60.67;48.00;;;28.18;96994.08;;;;118211;1188;25389;-43
2022/03/29 11:08:48;;;;;;;;;44.50;35.50;;;28.09;96990.86;;;;118532;1188;25694;-50
2022/03/29 11:11:39;;;;;;;;;55.00;44.33;;;28.16;96984.64;;;;118930;1190;24881;-47
2022/03/29 11:14:49;;;;;;;;;52.67;41.00;;;28.33;96982.85;;;;118976;1187;26078;-48
2022/03/29 11:17:19;;;;;;;;;65.33;51.33;;;28.48;96977.85;;;;118383;1193;25617;-48
2022/03/29 11:19:50;;;;;;;;;55.67;47.67;;;28.52;96972.92;;;;118831;1187;25692;-46
2022/03/29 11:22:35;;;;;;;;;72.25;55.00;;;28.53;96967.15;;;;118940;1188;25688;-48
2022/03/29 11:25:10;;;;;;;;;59.50;48.00;;;28.54;96967.40;;;;119209;1188;25019;-47
2022/03/29 11:27:41;;;;;;;;;60.33;45.67;;;28.58;96963.16;;;;118985;1188;26184;-47
2022/03/29 11:30:13;;;;;;;;;62.67;47.67;;;28.67;96958.72;;;;119155;1188;25813;-45
2022/03/29 11:32:55;;;;;;;;;62.33;47.67;;;28.68;96957.81;;;;118930;1188;25292;-43
2022/03/29 11:35:26;;;;;;;;;58.00;46.33;;;28.68;96948.38;;;;119586;1188;26384;-43
2022/03/29 11:38:12;;;;;;;;;62.67;49.67;;;28.78;96944.09;;;;119495;1188;25269;-45
2022/03/29 11:40:44;;;;;;;;;54.67;43.67;;;28.87;96936.18;;;;119168;1190;24834;-46
2022/03/29 11:43:15;;;;;;;;;63.00;46.50;;;28.90;96927.66;;;;119157;1188;25235;-46
2022/03/29 11:45:48;;;;;;;;;51.50;41.50;;;28.81;96925.98;;;;118774;1186;25270;-44
2022/03/29 11:48:23;;;;;;;;;56.00;46.67;;;28.74;96926.59;;;;118764;1187;26371;-44
2022/03/29 11:50:54;;;;;;;;;45.67;37.33;;;28.62;96921.46;;;;118284;1189;25436;-43
2022/03/29 11:53:26;;;;;;;;;46.33;37.67;;;28.50;96916.88;;;;118297;1189;24836;-44
2022/03/29 11:56:00;;;;;;;;;51.00;39.50;;;28.38;96914.98;;;;118886;1187;25568;-45
2022/03/29 11:58:32;;;;;;;;;30.50;30.50;;;28.46;96911.25;;;;118764;1187;25245;-45
2022/03/29 12:01:11;;;;;;;;;33.33;31.00;;;28.47;96898.52;;;;118620;1189;25402;-43
2022/03/29 12:03:57;;;;;;;;;36.67;32.00;;;28.40;96900.04;;;;118719;1187;25651;-42
2022/03/29 12:06:32;;;;;;;;;35.33;33.67;;;28.37;96895.55;;;;118623;1188;24885;-44
2022/03/29 12:09:07;;;;;;;;;40.67;32.67;;;28.46;96898.20;;;;118459;1186;25444;-46
2022/03/29 12:11:39;;;;;;;;;33.33;30.33;;;28.39;96891.41;;;;118579;1188;24972;-43
2022/03/29 12:14:13;;;;;;;;;31.67;30.00;;;28.37;96891.84;;;;118681;1187;25649;-42
2022/03/29 12:16:44;;;;;;;;;44.00;35.50;;;28.27;96893.19;;;;118496;1188;24868;-42
2022/03/29 12:19:26;;;;;;;;;38.00;33.00;;;28.39;96887.44;;;;118527;1186;25606;-42
2022/03/29 12:22:02;;;;;;;;;29.33;25.00;;;28.44;96887.52;;;;118414;1190;24933;-44
2022/03/29 12:24:32;;;;;;;;;41.33;35.00;;;28.58;96877.62;;;;118398;1189;25256;-43
2022/03/29 12:27:06;;;;;;;;;27.67;22.67;;;28.51;96872.21;;;;118725;1188;25325;-41